Terminal Aerodrome Forecast
Issued by NWS

Home | Current Version | Previous Version | Text Only | Print | Product List | Glossary On
Versions: 1 2 3 4 5 6 7 8 9 10 11 12 13 14 15 16 17
000
FTUS43 KTOP 190528
TAFFOE
TAF
KFOE 190528Z 1906/2006 20011KT P6SM SCT250 WS008/23045KT
     FM191400 19012KT P6SM BKN250
     FM191600 20013G22KT P6SM BKN250
     FM200000 20013KT P6SM BKN250=

USA.gov is the U.S. government's official web portal to all federal, state and local government web resources and services.